aviador You're here:

SADF Decoded Metar

SAN FERNANDO in ARGENTINA
Report Time2017-12-11 05:00:00
UTC Time2017-12-11 05:39:59
Flight Rules vfr VFR
Wind140° at 13 kt
W.Decomp.*RWY 23: 1.8 kt HW 12.9 kt LCW
W.Rank140° ranks 5
Current wind is above 140° avg. (6.3)
Visibility9999 m
Phenomena:N/A
Clouds:N/A
Expected CloudBase > 2,800 ft AGL from Temp-Dew spread
CeilingNone
Temp15°C (ISA 0)
Dew Point08°C (63% RH)
AAT9.9°C
QNH1014 hPa
Density Alt128 ft
Elevation13 ft
Report Wrong Elevation
Raw Report
METAR SADF 110500Z 14013KT 110V180 CAVOK 15/08 Q1014=

Extra information for SADF:More info

Metar Taf Metar & Taf Last 4 Metars F.Rules Stats Wind Profile Meteogram Temp Stats Airport Information Weather charts Add Link Nearby VenuesMetar ALERT Operation Metar Decoded Social comments